createdAt,value
2019-04-04T00:01:29.739Z,7.10
2019-04-04T00:04:08.336Z,6.97
2019-04-04T00:06:48.556Z,7.47
2019-04-04T00:12:14.267Z,7.77
2019-04-04T00:14:45.638Z,6.47
2019-04-04T00:17:18.591Z,7.60
2019-04-04T00:19:50.342Z,7.10
2019-04-04T00:22:23.563Z,7.40
2019-04-04T00:24:55.898Z,7.50
2019-04-04T00:27:26.761Z,6.97
2019-04-04T00:30:00.639Z,7.17
2019-04-04T00:32:34.537Z,7.13
2019-04-04T00:35:09.690Z,6.73
2019-04-04T00:37:41.134Z,6.97
2019-04-04T00:40:13.686Z,7.40
2019-04-04T00:42:47.788Z,7.33
2019-04-04T00:45:23.148Z,7.53
2019-04-04T00:47:56.343Z,7.20
2019-04-04T00:50:28.662Z,7.40
2019-04-04T00:52:59.596Z,7.37
2019-04-04T00:55:33.757Z,7.50
2019-04-04T00:58:12.075Z,7.60
2019-04-04T01:00:47.207Z,7.33
2019-04-04T01:03:19.161Z,7.10
2019-04-04T01:05:51.904Z,6.97
2019-04-04T01:08:25.601Z,7.30
2019-04-04T01:11:00.346Z,7.23
2019-04-04T01:13:31.331Z,8.03
2019-04-04T01:16:11.175Z,8.00
2019-04-04T01:18:41.058Z,8.10
2019-04-04T01:21:17.591Z,7.67
2019-04-04T01:23:50.800Z,7.87
2019-04-04T01:26:21.549Z,8.30
2019-04-04T01:28:53.414Z,7.87
2019-04-04T01:31:29.077Z,7.80
2019-04-04T01:34:06.207Z,7.70
2019-04-04T01:36:36.540Z,8.10
2019-04-04T01:39:16.959Z,7.93
2019-04-04T01:41:49.711Z,8.43
2019-04-04T01:44:23.738Z,7.63
2019-04-04T01:46:58.244Z,7.13
2019-04-04T01:49:34.304Z,7.80
2019-04-04T01:52:06.986Z,8.07
2019-04-04T01:54:41.027Z,7.37
2019-04-04T01:57:21.764Z,7.47
2019-04-04T01:59:55.354Z,7.60
2019-04-04T02:02:29.313Z,8.23
2019-04-04T02:05:06.887Z,7.83
2019-04-04T02:07:49.321Z,7.70
2019-04-04T02:10:31.245Z,8.00
2019-04-04T02:13:04.994Z,7.67
2019-04-04T02:15:37.022Z,7.50
2019-04-04T02:18:08.094Z,8.10
2019-04-04T02:20:38.025Z,8.03
2019-04-04T02:23:12.736Z,7.77
2019-04-04T02:25:45.378Z,7.67
2019-04-04T02:28:25.273Z,8.57
2019-04-04T02:30:57.489Z,7.60
2019-04-04T02:33:32.159Z,8.07
2019-04-04T02:36:05.548Z,8.40
2019-04-04T02:38:37.121Z,7.60
2019-04-04T02:41:08.619Z,7.70
2019-04-04T02:43:39.481Z,8.40
2019-04-04T02:46:12.386Z,8.40
2019-04-04T02:48:43.431Z,8.50
2019-04-04T02:51:15.603Z,8.33
2019-04-04T02:53:51.840Z,8.27
2019-04-04T02:56:19.638Z,8.13
2019-04-04T02:58:49.890Z,8.17
2019-04-04T03:01:21.320Z,7.70
2019-04-04T03:03:53.754Z,8.20
2019-04-04T03:06:27.722Z,8.27
2019-04-04T03:08:58.770Z,8.30
2019-04-04T03:11:29.762Z,8.73
2019-04-04T03:14:03.332Z,8.23
2019-04-04T03:16:36.595Z,8.90
2019-04-04T03:19:09.941Z,8.43
2019-04-04T03:21:39.217Z,8.33
2019-04-04T03:24:13.807Z,8.13
2019-04-04T03:26:45.249Z,8.63
2019-04-04T03:29:19.026Z,7.83
2019-04-04T03:31:52.664Z,8.20
2019-04-04T03:34:22.931Z,8.53
2019-04-04T03:36:53.589Z,9.13
2019-04-04T03:39:28.788Z,10.67
2019-04-04T03:42:00.428Z,8.43
2019-04-04T03:44:34.424Z,8.60
2019-04-04T03:47:04.914Z,8.57
2019-04-04T03:49:35.263Z,7.83
2019-04-04T03:52:11.347Z,8.17
2019-04-04T03:54:43.311Z,11.93
2019-04-04T03:57:16.979Z,9.77
2019-04-04T03:59:52.219Z,7.87
2019-04-04T04:02:23.870Z,7.80
2019-04-04T04:05:00.934Z,9.20
2019-04-04T04:07:32.080Z,8.63
2019-04-04T04:10:08.499Z,9.13
2019-04-04T04:12:42.674Z,10.17
2019-04-04T04:15:13.517Z,10.67
2019-04-04T04:17:47.137Z,9.10
2019-04-04T04:20:19.275Z,8.87
2019-04-04T04:22:51.492Z,8.67
2019-04-04T04:25:21.644Z,7.83
2019-04-04T04:27:57.542Z,7.93
2019-04-04T04:30:39.422Z,7.80
2019-04-04T04:33:08.400Z,8.50
2019-04-04T04:35:45.840Z,8.57
2019-04-04T04:38:20.146Z,13.57
2019-04-04T04:40:53.477Z,9.23
2019-04-04T04:43:26.494Z,8.93
2019-04-04T04:46:01.458Z,9.73
2019-04-04T04:48:38.455Z,8.73
2019-04-04T04:51:11.839Z,8.00
2019-04-04T04:53:44.362Z,12.10
2019-04-04T04:56:17.386Z,10.17
2019-04-04T04:58:50.222Z,8.27
2019-04-04T05:01:25.610Z,9.60
2019-04-04T05:03:57.575Z,8.40
2019-04-04T05:06:29.289Z,9.67
2019-04-04T05:08:59.654Z,9.13
2019-04-04T05:11:38.586Z,10.33
2019-04-04T05:14:15.270Z,9.13
2019-04-04T05:16:51.031Z,8.50
2019-04-04T05:19:26.070Z,9.30
2019-04-04T05:22:03.312Z,9.00
2019-04-04T05:24:43.158Z,10.07
2019-04-04T05:27:19.767Z,9.83
2019-04-04T05:30:20.158Z,10.23
2019-04-04T05:32:51.973Z,9.63
2019-04-04T05:35:24.493Z,9.30
2019-04-04T05:38:07.627Z,9.23
2019-04-04T05:40:39.792Z,10.03
2019-04-04T05:43:11.132Z,10.40
2019-04-04T05:45:45.289Z,9.90
2019-04-04T05:48:15.567Z,9.03
2019-04-04T05:50:49.287Z,11.03
2019-04-04T05:53:23.606Z,10.53
2019-04-04T05:56:14.819Z,10.87
2019-04-04T05:59:00.490Z,10.37
2019-04-04T06:01:34.859Z,10.23
2019-04-04T06:04:05.908Z,10.73
2019-04-04T06:06:41.306Z,10.20
2019-04-04T06:09:15.904Z,10.60
2019-04-04T06:11:53.818Z,9.53
2019-04-04T06:14:32.574Z,10.57
2019-04-04T06:17:07.173Z,8.90
2019-04-04T06:19:44.370Z,8.70
2019-04-04T06:22:16.591Z,9.53
2019-04-04T06:24:52.810Z,9.13
2019-04-04T06:27:25.778Z,9.43
2019-04-04T06:30:11.183Z,9.07
2019-04-04T06:32:43.324Z,9.73
2019-04-04T06:35:19.809Z,9.50
2019-04-04T06:37:56.181Z,10.40
2019-04-04T06:40:36.697Z,9.87
2019-04-04T06:43:10.336Z,10.70
2019-04-04T06:45:41.144Z,10.30
2019-04-04T06:51:04.691Z,9.83
2019-04-04T06:53:53.631Z,10.13
2019-04-04T06:56:36.273Z,9.70
2019-04-04T07:02:33.179Z,10.47
2019-04-04T07:05:01.270Z,10.67
2019-04-04T07:07:43.101Z,9.90
2019-04-04T07:10:13.635Z,11.40
2019-04-04T07:12:49.130Z,10.83
2019-04-04T07:15:46.078Z,11.10
2019-04-04T07:18:10.186Z,11.07
2019-04-04T07:20:48.409Z,10.93
2019-04-04T07:23:19.339Z,10.23
2019-04-04T07:25:54.079Z,11.17
2019-04-04T07:28:30.617Z,11.73
2019-04-04T07:31:03.021Z,11.10
2019-04-04T07:33:33.018Z,11.60
2019-04-04T07:44:54.757Z,10.33
2019-04-04T07:50:12.102Z,11.43
2019-04-04T07:52:43.591Z,10.90
2019-04-04T07:55:27.498Z,10.90
2019-04-04T07:57:59.299Z,12.87
2019-04-04T08:00:32.443Z,10.27
2019-04-04T08:03:04.597Z,11.20
2019-04-04T08:05:34.417Z,11.30
2019-04-04T08:08:06.870Z,12.13
2019-04-04T08:10:40.447Z,11.23
2019-04-04T08:13:16.241Z,11.07
2019-04-04T08:15:49.637Z,10.73
2019-04-04T08:18:23.025Z,12.20
2019-04-04T08:20:53.874Z,11.43
2019-04-04T08:23:23.721Z,11.07
2019-04-04T08:25:55.236Z,11.23
2019-04-04T08:28:28.707Z,11.77
2019-04-04T08:31:01.519Z,11.97
2019-04-04T08:33:31.829Z,11.47
2019-04-04T08:36:06.322Z,11.93
2019-04-04T08:38:33.726Z,12.23
2019-04-04T08:41:05.671Z,11.07
2019-04-04T08:43:37.698Z,12.47
2019-04-04T08:46:07.749Z,13.00
2019-04-04T08:48:45.753Z,10.77
2019-04-04T08:51:23.102Z,11.93
2019-04-04T08:53:54.181Z,9.97
2019-04-04T08:56:27.746Z,10.50
2019-04-04T08:59:02.366Z,11.70
2019-04-04T09:01:39.639Z,11.17
2019-04-04T09:04:10.643Z,10.63
2019-04-04T09:06:47.023Z,11.13
2019-04-04T09:09:17.120Z,11.30
2019-04-04T09:11:52.169Z,11.00
2019-04-04T09:14:28.190Z,10.60
2019-04-04T09:16:58.984Z,10.70
2019-04-04T09:19:29.680Z,11.37
2019-04-04T09:22:03.817Z,11.47
2019-04-04T09:24:36.292Z,10.70
2019-04-04T09:27:09.242Z,10.93
2019-04-04T09:30:02.533Z,12.53
2019-04-04T09:32:34.097Z,11.97
2019-04-04T09:35:10.200Z,11.80
2019-04-04T09:37:42.898Z,12.10
2019-04-04T09:40:17.236Z,12.33
2019-04-04T09:42:50.840Z,12.20
2019-04-04T09:45:27.098Z,11.57
2019-04-04T09:48:02.839Z,10.87
2019-04-04T09:50:34.434Z,13.20
2019-04-04T09:53:11.756Z,11.37
2019-04-04T09:55:52.813Z,11.27
2019-04-04T09:58:26.933Z,13.27
2019-04-04T10:01:06.453Z,12.77
2019-04-04T10:03:37.198Z,11.07
2019-04-04T10:06:10.312Z,11.10
2019-04-04T10:08:55.546Z,12.77
2019-04-04T10:11:27.836Z,10.10
2019-04-04T10:14:00.208Z,12.53
2019-04-04T10:16:32.904Z,11.47
2019-04-04T10:19:06.168Z,10.97
2019-04-04T10:21:43.104Z,9.73
2019-04-04T10:24:22.773Z,11.70
2019-04-04T10:26:58.570Z,10.57
2019-04-04T10:29:33.339Z,11.63
2019-04-04T10:32:17.947Z,10.03
2019-04-04T10:34:52.616Z,11.60
2019-04-04T10:37:23.887Z,12.30
2019-04-04T10:39:53.880Z,11.47
2019-04-04T10:42:30.311Z,11.73
2019-04-04T10:45:07.498Z,11.03
2019-04-04T10:47:50.945Z,10.37
2019-04-04T10:50:23.597Z,11.23
2019-04-04T10:52:55.899Z,9.90
2019-04-04T10:55:36.560Z,11.10
2019-04-04T10:58:11.978Z,13.27
2019-04-04T11:00:48.323Z,11.50
2019-04-04T11:03:25.329Z,11.90
2019-04-04T11:05:57.633Z,10.08
2019-04-04T11:08:31.362Z,10.53
2019-04-04T11:11:07.910Z,11.87
2019-04-04T11:13:40.940Z,10.90
2019-04-04T11:16:14.851Z,12.20
2019-04-04T11:18:48.737Z,10.88
2019-04-04T11:21:25.525Z,11.63
2019-04-04T11:23:57.713Z,11.85
2019-04-04T11:26:31.959Z,11.65
2019-04-04T11:29:02.970Z,12.30
2019-04-04T11:31:35.067Z,12.82
2019-04-04T11:34:07.755Z,12.55
2019-04-04T11:36:37.988Z,12.98
2019-04-04T11:39:12.522Z,12.95
2019-04-04T11:41:47.707Z,12.90
2019-04-04T11:44:20.299Z,13.15
2019-04-04T11:47:07.041Z,14.13
2019-04-04T11:49:47.015Z,12.18
2019-04-04T11:52:23.507Z,12.63
2019-04-04T11:54:57.393Z,13.28
2019-04-04T11:57:34.620Z,12.28
2019-04-04T12:00:08.851Z,11.83
2019-04-04T12:02:39.443Z,11.53
2019-04-04T12:05:16.584Z,11.08
2019-04-04T12:07:47.510Z,13.88
2019-04-04T12:10:21.585Z,12.23
2019-04-04T12:12:53.713Z,12.55
2019-04-04T12:15:25.869Z,11.45
2019-04-04T12:17:55.965Z,12.88
2019-04-04T12:20:30.845Z,11.80
2019-04-04T12:23:03.114Z,12.20
2019-04-04T12:25:32.947Z,12.40
2019-04-04T12:28:05.838Z,11.15
2019-04-04T12:30:42.375Z,13.03
2019-04-04T12:33:12.502Z,11.55
2019-04-04T12:35:56.644Z,12.03
2019-04-04T12:38:35.986Z,12.75
2019-04-04T12:41:15.354Z,12.37
2019-04-04T12:43:53.094Z,11.70
2019-04-04T12:46:42.707Z,12.18
2019-04-04T12:49:12.705Z,11.63
2019-04-04T12:54:30.348Z,11.00
2019-04-04T12:57:04.592Z,12.10
2019-04-04T12:59:36.510Z,12.63
2019-04-04T13:02:12.071Z,11.43
2019-04-04T13:04:44.159Z,11.30
2019-04-04T13:07:18.775Z,10.72
2019-04-04T13:12:33.398Z,11.28
2019-04-04T13:15:04.797Z,10.85
2019-04-04T13:17:44.178Z,10.78
2019-04-04T13:20:16.485Z,11.57
2019-04-04T13:22:53.535Z,12.25
2019-04-04T13:25:24.575Z,11.97
2019-04-04T13:28:09.399Z,10.88
2019-04-04T13:33:45.006Z,11.55
2019-04-04T13:36:17.776Z,11.53
2019-04-04T13:38:47.635Z,10.98
2019-04-04T13:41:24.233Z,11.03
2019-04-04T13:43:56.600Z,12.23
2019-04-04T13:46:30.696Z,12.05
2019-04-04T13:49:07.205Z,12.35
2019-04-04T13:51:37.158Z,11.65
2019-04-04T13:54:11.385Z,11.22
2019-04-04T14:02:24.968Z,14.53
2019-04-04T14:08:15.236Z,15.60
2019-04-04T14:10:58.468Z,12.43
2019-04-04T14:13:30.168Z,13.13
2019-04-04T14:16:01.859Z,12.63
2019-04-04T14:18:45.663Z,12.58
2019-04-04T14:21:22.534Z,13.03
2019-04-04T14:23:56.947Z,14.23
2019-04-04T14:26:45.926Z,14.65
2019-04-04T14:32:17.338Z,11.90
2019-04-04T14:34:50.326Z,11.53
2019-04-04T14:37:29.389Z,11.65
2019-04-04T14:40:00.337Z,11.85
2019-04-04T14:45:11.504Z,11.57
2019-04-04T14:47:48.571Z,11.15
2019-04-04T14:50:24.396Z,12.88
2019-04-04T14:52:57.072Z,10.75
2019-04-04T14:55:30.471Z,11.45
2019-04-04T14:58:03.687Z,10.48
2019-04-04T15:00:36.881Z,12.13
2019-04-04T15:03:07.316Z,11.20
2019-04-04T15:05:46.263Z,10.75
2019-04-04T15:08:20.725Z,10.35
2019-04-04T15:10:53.196Z,10.30
2019-04-04T15:13:38.336Z,10.00
2019-04-04T15:16:19.956Z,9.33
2019-04-04T15:18:54.234Z,11.85
2019-04-04T15:21:25.122Z,12.25
2019-04-04T15:23:55.706Z,10.60
2019-04-04T15:26:27.820Z,11.28
2019-04-04T15:29:24.439Z,10.53
2019-04-04T15:31:57.420Z,10.78
2019-04-04T15:34:28.010Z,9.70
2019-04-04T15:37:06.346Z,9.88
2019-04-04T15:39:42.560Z,11.00
2019-04-04T15:42:16.713Z,11.88
2019-04-04T15:44:51.877Z,10.78
2019-04-04T15:47:26.000Z,11.85
2019-04-04T15:50:02.333Z,10.25
2019-04-04T15:52:37.002Z,10.32
2019-04-04T15:55:11.215Z,9.73
2019-04-04T15:57:44.649Z,10.40
2019-04-04T16:00:17.778Z,10.55
2019-04-04T16:02:49.599Z,10.48
2019-04-04T16:05:27.337Z,10.72
2019-04-04T16:08:04.764Z,11.20
2019-04-04T16:10:34.452Z,17.00
2019-04-04T16:13:07.794Z,12.65
2019-04-04T16:15:41.744Z,15.75
2019-04-04T16:18:20.489Z,11.85
2019-04-04T16:20:52.540Z,13.68
2019-04-04T16:23:23.773Z,14.13
2019-04-04T16:25:53.911Z,13.53
2019-04-04T16:28:26.996Z,12.83
2019-04-04T16:31:00.703Z,13.07
2019-04-04T16:33:31.893Z,11.03
2019-04-04T16:36:08.065Z,10.80
2019-04-04T16:38:43.920Z,10.43
2019-04-04T16:41:15.665Z,9.50
2019-04-04T16:43:49.450Z,10.10
2019-04-04T16:46:27.409Z,10.77
2019-04-04T16:49:00.418Z,10.13
2019-04-04T16:51:36.369Z,9.40
2019-04-04T16:54:07.112Z,9.67
2019-04-04T16:59:33.560Z,9.23
2019-04-04T17:02:03.843Z,10.13
2019-04-04T17:04:35.279Z,10.23
2019-04-04T17:07:13.239Z,11.47
2019-04-04T17:09:47.050Z,13.00
2019-04-04T17:12:16.642Z,15.13
2019-04-04T17:14:47.859Z,15.40
2019-04-04T17:17:19.393Z,13.57
2019-04-04T17:19:51.368Z,11.50
2019-04-04T17:22:29.120Z,12.70
2019-04-04T17:25:06.587Z,11.53
2019-04-04T17:30:33.594Z,10.67
2019-04-04T17:33:04.984Z,12.33
2019-04-04T17:35:40.860Z,11.63
2019-04-04T17:38:12.187Z,11.40
2019-04-04T17:40:46.620Z,10.60
2019-04-04T17:43:18.902Z,10.33
2019-04-04T17:46:01.040Z,10.03
2019-04-04T17:48:54.024Z,10.63
2019-04-04T17:51:31.034Z,10.43
2019-04-04T17:54:06.001Z,11.13
2019-04-04T17:56:38.814Z,10.60
2019-04-04T17:59:10.346Z,10.00
2019-04-04T18:01:42.919Z,10.17
2019-04-04T18:04:13.875Z,9.43
2019-04-04T18:06:48.114Z,8.53
2019-04-04T18:09:17.912Z,9.97
2019-04-04T18:11:51.488Z,9.67
2019-04-04T18:14:22.256Z,8.57
2019-04-04T18:16:55.102Z,8.77
2019-04-04T18:19:26.146Z,10.17
2019-04-04T18:22:01.061Z,10.17
2019-04-04T18:24:40.437Z,9.60
2019-04-04T18:27:14.387Z,10.53
2019-04-04T18:29:45.247Z,12.07
2019-04-04T18:32:28.706Z,13.07
2019-04-04T18:35:00.051Z,10.47
2019-04-04T18:37:33.462Z,9.60
2019-04-04T18:40:12.726Z,8.80
2019-04-04T18:42:53.015Z,7.87
2019-04-04T18:45:20.824Z,6.47
2019-04-04T18:47:52.403Z,8.43
2019-04-04T18:50:36.166Z,8.83
2019-04-04T18:53:10.578Z,10.90
2019-04-04T18:55:48.525Z,9.87
2019-04-04T18:58:21.113Z,8.73
2019-04-04T19:00:55.812Z,8.97
2019-04-04T19:03:29.737Z,9.23
2019-04-04T19:06:06.669Z,12.70
2019-04-04T19:08:43.075Z,12.27
2019-04-04T19:11:17.066Z,10.50
2019-04-04T19:13:47.015Z,9.07
2019-04-04T19:16:18.418Z,9.53
2019-04-04T19:18:50.822Z,8.33
2019-04-04T19:24:48.784Z,9.30
2019-04-04T19:27:19.384Z,8.23
2019-04-04T19:29:57.353Z,7.57
2019-04-04T19:32:31.031Z,8.40
2019-04-04T19:35:07.618Z,7.70
2019-04-04T19:37:42.820Z,7.93
2019-04-04T19:40:25.272Z,8.17
2019-04-04T19:43:01.685Z,7.87
2019-04-04T19:45:43.625Z,8.40
2019-04-04T19:48:20.495Z,9.30
2019-04-04T19:51:01.499Z,9.33
2019-04-04T19:56:40.050Z,9.90
2019-04-04T19:59:15.943Z,10.33
2019-04-04T20:10:24.596Z,10.63
2019-04-04T20:12:57.024Z,10.37
2019-04-04T20:15:31.886Z,10.67
2019-04-04T20:18:27.669Z,10.17
2019-04-04T20:21:05.680Z,9.67
2019-04-04T20:23:38.545Z,10.40
2019-04-04T20:26:13.248Z,9.93
2019-04-04T20:28:45.742Z,9.07
2019-04-04T20:31:17.285Z,8.13
2019-04-04T20:34:00.554Z,8.90
2019-04-04T20:36:21.209Z,8.73
2019-04-04T20:38:56.017Z,8.30
2019-04-04T20:41:33.141Z,7.37
2019-04-04T20:44:15.141Z,7.03
2019-04-04T20:46:46.131Z,7.87
2019-04-04T20:49:25.503Z,6.63
2019-04-04T20:51:57.451Z,7.53
2019-04-04T20:54:27.885Z,7.40
2019-04-04T20:57:01.417Z,6.00
2019-04-04T20:59:32.928Z,5.63
2019-04-04T21:02:15.356Z,5.30
2019-04-04T21:04:47.068Z,4.77
2019-04-04T21:07:20.859Z,4.73
2019-04-04T21:09:54.171Z,4.50
2019-04-04T21:12:28.562Z,4.20
2019-04-04T21:14:58.499Z,3.90
2019-04-04T21:17:42.096Z,4.43
2019-04-04T21:20:15.303Z,4.00
2019-04-04T21:22:47.565Z,3.70
2019-04-04T21:25:19.381Z,3.27
2019-04-04T21:27:50.527Z,3.60
2019-04-04T21:30:22.939Z,3.30
2019-04-04T21:32:54.727Z,2.90
2019-04-04T21:35:24.642Z,3.57
2019-04-04T21:37:56.071Z,3.70
2019-04-04T21:40:30.213Z,3.60
2019-04-04T21:43:05.450Z,3.60
2019-04-04T21:45:40.312Z,3.13
2019-04-04T21:48:14.209Z,3.10
2019-04-04T21:50:47.469Z,4.20
2019-04-04T21:53:19.068Z,3.17
2019-04-04T21:55:51.161Z,3.27
2019-04-04T21:58:24.121Z,3.60
2019-04-04T22:00:55.211Z,3.60
2019-04-04T22:03:31.506Z,4.50
2019-04-04T22:06:02.458Z,5.00
2019-04-04T22:08:37.847Z,3.50
2019-04-04T22:11:09.363Z,3.93
2019-04-04T22:13:40.580Z,2.87
2019-04-04T22:16:13.581Z,5.17
2019-04-04T22:18:45.051Z,5.10
2019-04-04T22:21:17.481Z,5.30
2019-04-04T22:23:48.518Z,5.73
2019-04-04T22:26:22.944Z,5.40
2019-04-04T22:28:56.494Z,5.17
2019-04-04T22:31:32.499Z,4.87
2019-04-04T22:34:03.784Z,4.97
2019-04-04T22:36:34.631Z,4.27
2019-04-04T22:39:07.873Z,4.17
2019-04-04T22:41:46.106Z,4.27
2019-04-04T22:44:34.082Z,4.40
2019-04-04T22:46:54.718Z,5.33
2019-04-04T22:49:25.763Z,5.27
2019-04-04T22:51:57.197Z,5.40
2019-04-04T22:54:28.504Z,4.80
2019-04-04T22:57:00.276Z,4.60
2019-04-04T22:59:30.149Z,4.67
2019-04-04T23:02:01.433Z,4.73
2019-04-04T23:04:34.647Z,5.70
2019-04-04T23:07:06.724Z,6.07
2019-04-04T23:09:38.861Z,5.63
2019-04-04T23:12:08.984Z,3.97
2019-04-04T23:14:48.024Z,4.00
2019-04-04T23:17:13.527Z,3.70
2019-04-04T23:19:47.390Z,3.60
2019-04-04T23:22:17.245Z,3.33
2019-04-04T23:24:50.139Z,3.10
2019-04-04T23:27:21.291Z,3.97
2019-04-04T23:29:54.032Z,3.87
2019-04-04T23:32:26.039Z,3.77
2019-04-04T23:34:55.860Z,3.30
2019-04-04T23:37:29.964Z,3.40
2019-04-04T23:40:01.456Z,3.43
2019-04-04T23:42:32.269Z,4.57
2019-04-04T23:45:04.907Z,4.23
2019-04-04T23:47:42.629Z,3.80
2019-04-04T23:50:08.620Z,4.07
2019-04-04T23:52:40.901Z,3.67
2019-04-04T23:55:14.391Z,4.33
2019-04-04T23:57:46.170Z,3.97
